createdAt,value
2023-01-28T00:03:39.448Z,100.00
2023-01-28T00:08:41.141Z,100.00
2023-01-28T00:13:42.435Z,100.00
2023-01-28T00:18:43.445Z,100.00
2023-01-28T00:23:51.512Z,100.00
2023-01-28T00:28:52.404Z,100.00
2023-01-28T00:33:55.178Z,100.00
2023-01-28T00:38:58.021Z,100.00
2023-01-28T00:43:59.033Z,100.00
2023-01-28T00:49:00.977Z,100.00
2023-01-28T00:54:01.963Z,100.00
2023-01-28T00:59:02.861Z,100.00
2023-01-28T01:04:09.632Z,100.00
2023-01-28T01:09:10.953Z,100.00
2023-01-28T01:14:11.861Z,100.00
2023-01-28T01:19:14.291Z,100.00
2023-01-28T01:24:17.238Z,100.00
2023-01-28T01:29:18.116Z,100.00
2023-01-28T01:34:18.876Z,100.00
2023-01-28T01:39:19.684Z,100.00
2023-01-28T01:48:10.597Z,100.00
2023-01-28T01:53:20.185Z,100.00
2023-01-28T01:58:25.376Z,100.00
2023-01-28T02:03:34.419Z,100.00
2023-01-28T02:08:35.250Z,100.00
2023-01-28T02:13:40.755Z,100.00
2023-01-28T02:18:41.765Z,100.00
2023-01-28T02:25:49.050Z,100.00
2023-01-28T02:31:08.396Z,100.00
2023-01-28T02:37:01.991Z,100.00
2023-01-28T02:42:12.813Z,100.00
2023-01-28T02:47:33.648Z,100.00
2023-01-28T02:53:37.672Z,100.00
2023-01-28T02:59:29.826Z,100.00
2023-01-28T03:04:35.757Z,100.00
2023-01-28T03:09:39.323Z,100.00
2023-01-28T03:15:01.053Z,100.00
2023-01-28T03:20:20.884Z,100.00
2023-01-28T03:25:43.773Z,100.00
2023-01-28T03:31:12.494Z,100.00
2023-01-28T03:36:41.920Z,100.00
2023-01-28T03:43:40.478Z,100.00
2023-01-28T03:48:41.551Z,100.00
2023-01-28T03:53:43.248Z,100.00
2023-01-28T03:58:56.177Z,100.00
2023-01-28T04:03:57.555Z,100.00
2023-01-28T04:09:01.530Z,100.00
2023-01-28T04:14:06.248Z,100.00
2023-01-28T04:19:16.340Z,100.00
2023-01-28T04:24:19.794Z,100.00
2023-01-28T04:29:20.858Z,100.00
2023-01-28T04:34:23.510Z,100.00
2023-01-28T04:39:42.629Z,100.00
2023-01-28T04:46:05.113Z,100.00
2023-01-28T04:51:14.963Z,100.00
2023-01-28T04:56:25.168Z,100.00
2023-01-28T05:01:26.134Z,100.00
2023-01-28T05:06:27.712Z,100.00
2023-01-28T05:11:30.827Z,100.00
2023-01-28T05:16:35.035Z,100.00
2023-01-28T05:21:37.281Z,100.00
2023-01-28T05:26:43.289Z,100.00
2023-01-28T05:31:44.513Z,100.00
2023-01-28T05:36:45.972Z,100.00
2023-01-28T05:42:04.188Z,100.00
2023-01-28T05:47:07.320Z,100.00
2023-01-28T05:52:21.863Z,100.00
2023-01-28T05:57:22.777Z,100.00
2023-01-28T06:02:24.551Z,100.00
2023-01-28T06:07:28.809Z,100.00
2023-01-28T06:12:31.418Z,100.00
2023-01-28T06:18:08.443Z,100.00
2023-01-28T06:23:09.361Z,100.00
2023-01-28T06:28:10.629Z,100.00
2023-01-28T06:33:11.441Z,100.00
2023-01-28T06:38:13.258Z,100.00
2023-01-28T06:43:13.978Z,100.00
2023-01-28T06:48:14.867Z,100.00
2023-01-28T06:53:17.277Z,100.00
2023-01-28T06:58:18.025Z,100.00
2023-01-28T07:03:18.998Z,100.00
2023-01-28T07:08:19.924Z,100.00
2023-01-28T07:13:20.944Z,100.00
2023-01-28T07:18:21.825Z,100.00
2023-01-28T07:23:22.701Z,100.00
2023-01-28T07:28:23.454Z,100.00
2023-01-28T07:33:24.333Z,100.00
2023-01-28T07:38:25.157Z,100.00
2023-01-28T07:43:25.936Z,100.00
2023-01-28T07:48:26.729Z,100.00
2023-01-28T07:53:27.498Z,100.00
2023-01-28T07:58:28.255Z,100.00
2023-01-28T08:03:29.154Z,100.00
2023-01-28T08:08:30.312Z,100.00
2023-01-28T08:13:31.096Z,100.00
2023-01-28T08:18:31.893Z,100.00
2023-01-28T08:23:35.252Z,100.00
2023-01-28T08:28:35.978Z,100.00
2023-01-28T08:33:37.182Z,100.00
2023-01-28T08:38:37.883Z,100.00
2023-01-28T08:43:39.464Z,100.00
2023-01-28T08:48:40.280Z,100.00
2023-01-28T08:53:41.155Z,100.00
2023-01-28T08:58:41.988Z,100.00
2023-01-28T09:03:42.849Z,100.00
2023-01-28T09:08:43.612Z,100.00
2023-01-28T09:13:44.342Z,100.00
2023-01-28T09:18:45.349Z,100.00
2023-01-28T09:23:46.288Z,100.00
2023-01-28T09:28:47.510Z,100.00
2023-01-28T09:33:54.197Z,100.00
2023-01-28T09:38:55.322Z,100.00
2023-01-28T09:50:48.009Z,100.00
2023-01-28T09:56:45.485Z,100.00
2023-01-28T10:02:18.185Z,100.00
2023-01-28T10:07:46.488Z,100.00
2023-01-28T10:13:30.627Z,100.00
2023-01-28T10:18:39.620Z,100.00
2023-01-28T10:23:54.854Z,100.00
2023-01-28T10:28:59.803Z,100.00
2023-01-28T10:34:02.483Z,100.00
2023-01-28T10:39:05.880Z,100.00
2023-01-28T10:44:16.416Z,100.00
2023-01-28T10:49:29.676Z,100.00
2023-01-28T10:54:30.607Z,99.57
2023-01-28T10:59:35.802Z,100.00
2023-01-28T11:04:36.611Z,99.53
2023-01-28T11:09:37.722Z,99.22
2023-01-28T11:14:49.046Z,100.00
2023-01-28T11:19:52.871Z,99.06
2023-01-28T11:24:53.984Z,99.56
2023-01-28T11:29:57.554Z,97.64
2023-01-28T11:34:59.642Z,97.29
2023-01-28T11:40:02.331Z,98.03
2023-01-28T11:45:14.737Z,99.68
2023-01-28T11:53:12.315Z,99.09
2023-01-28T11:58:21.428Z,98.89
2023-01-28T12:04:03.142Z,99.23
2023-01-28T12:10:33.242Z,100.00
2023-01-28T12:19:19.409Z,99.19
2023-01-28T12:26:18.034Z,97.82
2023-01-28T12:38:09.028Z,100.00
2023-01-28T12:43:41.076Z,100.00
2023-01-28T12:48:53.144Z,97.65
2023-01-28T12:54:05.253Z,96.17
2023-01-28T12:59:17.232Z,97.59
2023-01-28T13:05:56.860Z,98.08
2023-01-28T13:11:02.598Z,97.24
2023-01-28T13:16:06.970Z,97.62
2023-01-28T13:21:15.126Z,96.52
2023-01-28T13:26:58.310Z,97.95
2023-01-28T13:32:02.392Z,97.90
2023-01-28T13:37:28.296Z,96.76
2023-01-28T13:42:30.418Z,96.22
2023-01-28T13:47:36.218Z,94.89
2023-01-28T13:52:50.150Z,95.84
2023-01-28T14:01:19.536Z,91.70
2023-01-28T14:10:14.994Z,92.81
2023-01-28T14:15:21.684Z,91.54
2023-01-28T14:20:32.118Z,92.14
2023-01-28T14:26:17.236Z,90.00
2023-01-28T14:31:27.187Z,90.62
2023-01-28T14:36:28.137Z,90.49
2023-01-28T14:41:29.414Z,90.36
2023-01-28T14:46:40.599Z,91.41
2023-01-28T14:58:11.827Z,91.59
2023-01-28T15:03:24.917Z,90.95
2023-01-28T15:08:26.409Z,91.51
2023-01-28T15:13:31.857Z,96.27
2023-01-28T15:18:37.025Z,89.50
2023-01-28T15:23:41.150Z,89.53
2023-01-28T15:28:44.034Z,86.59
2023-01-28T15:33:44.859Z,89.70
2023-01-28T15:38:45.657Z,89.88
2023-01-28T15:43:48.540Z,87.09
2023-01-28T15:48:58.823Z,90.99
2023-01-28T15:54:04.103Z,90.24
2023-01-28T15:59:21.395Z,89.34
2023-01-28T16:04:25.689Z,86.23
2023-01-28T16:09:29.862Z,86.58
2023-01-28T16:14:43.492Z,88.76
2023-01-28T16:19:48.216Z,89.24
2023-01-28T16:24:54.904Z,90.56
2023-01-28T16:29:55.863Z,90.35
2023-01-28T16:34:56.739Z,90.40
2023-01-28T16:39:59.093Z,90.14
2023-01-28T16:45:04.018Z,91.01
2023-01-28T16:50:05.633Z,86.96
2023-01-28T16:55:11.322Z,88.24
2023-01-28T17:00:22.339Z,90.98
2023-01-28T17:05:23.288Z,91.23
2023-01-28T17:10:25.136Z,92.83
2023-01-28T17:15:26.407Z,93.82
2023-01-28T17:20:27.221Z,93.66
2023-01-28T17:25:27.987Z,94.16
2023-01-28T17:30:28.758Z,93.78
2023-01-28T17:35:30.158Z,93.48
2023-01-28T17:40:38.336Z,93.17
2023-01-28T17:45:39.319Z,92.22
2023-01-28T17:50:40.394Z,93.61
2023-01-28T17:55:41.128Z,93.74
2023-01-28T18:00:42.370Z,95.26
2023-01-28T18:05:43.577Z,95.73
2023-01-28T18:10:44.381Z,95.11
2023-01-28T18:15:45.118Z,95.60
2023-01-28T18:20:45.928Z,94.35
2023-01-28T18:25:46.685Z,94.32
2023-01-28T18:30:47.484Z,93.21
2023-01-28T18:35:48.879Z,93.52
2023-01-28T18:40:54.707Z,93.65
2023-01-28T18:45:55.877Z,94.29
2023-01-28T18:50:57.667Z,94.04
2023-01-28T18:56:03.479Z,94.56
2023-01-28T19:01:09.449Z,92.95
2023-01-28T19:06:11.808Z,93.08
2023-01-28T19:11:12.613Z,94.97
2023-01-28T19:16:13.459Z,97.66
2023-01-28T19:21:14.451Z,94.48
2023-01-28T19:26:20.062Z,94.03
2023-01-28T19:31:23.411Z,94.73
2023-01-28T19:36:26.621Z,94.12
2023-01-28T19:41:28.246Z,94.27
2023-01-28T19:46:29.311Z,96.14
2023-01-28T19:51:31.047Z,95.00
2023-01-28T19:56:35.251Z,93.79
2023-01-28T20:01:36.379Z,95.55
2023-01-28T20:06:37.819Z,97.60
2023-01-28T20:11:39.047Z,96.20
2023-01-28T20:16:40.369Z,96.18
2023-01-28T20:21:41.159Z,96.56
2023-01-28T20:26:42.968Z,97.77
2023-01-28T20:31:44.279Z,97.23
2023-01-28T20:36:45.821Z,97.42
2023-01-28T20:41:46.632Z,94.50
2023-01-28T20:46:47.440Z,95.24
2023-01-28T20:51:50.850Z,93.27
2023-01-28T20:56:52.652Z,95.25
2023-01-28T21:01:53.523Z,95.06
2023-01-28T21:06:54.541Z,94.55
2023-01-28T21:11:55.312Z,93.15
2023-01-28T21:16:56.213Z,91.48
2023-01-28T21:21:57.092Z,91.02
2023-01-28T21:26:57.964Z,90.92
2023-01-28T21:31:58.809Z,90.60
2023-01-28T21:36:59.666Z,92.29
2023-01-28T21:42:00.439Z,90.25
2023-01-28T21:47:01.354Z,90.98
2023-01-28T21:52:02.087Z,91.60
2023-01-28T21:57:03.059Z,90.33
2023-01-28T22:02:10.704Z,91.58
2023-01-28T22:07:13.655Z,91.55
2023-01-28T22:12:14.994Z,91.73
2023-01-28T22:17:17.797Z,92.11
2023-01-28T22:22:18.609Z,91.75
2023-01-28T22:27:19.379Z,91.46
2023-01-28T22:32:20.164Z,91.72
2023-01-28T22:37:20.969Z,100.00
2023-01-28T22:42:21.762Z,93.32
2023-01-28T22:47:22.782Z,91.99
2023-01-28T22:52:23.576Z,93.33
2023-01-28T22:57:24.389Z,92.48
2023-01-28T23:02:25.171Z,91.64
2023-01-28T23:07:26.443Z,93.88
2023-01-28T23:12:27.375Z,90.73
2023-01-28T23:17:46.313Z,89.15
2023-01-28T23:23:05.774Z,90.66
2023-01-28T23:28:06.639Z,90.61
2023-01-28T23:33:07.692Z,90.07
2023-01-28T23:38:08.475Z,92.23
2023-01-28T23:43:09.229Z,92.83
2023-01-28T23:48:09.959Z,89.55
2023-01-28T23:53:12.766Z,90.19
2023-01-28T23:58:13.476Z,91.97
